sensor_id;sensor_type;location;lat;lon;timestamp;pressure;altitude;pressure_sealevel;temperature;humidity
15642;BME280;7920;42.524;27.448;2022-07-19T01:45:35;101583.59;;;25.16;100.00
15642;BME280;7920;42.524;27.448;2022-07-19T01:48:05;101577.63;;;25.06;100.00
15642;BME280;7920;42.524;27.448;2022-07-19T01:50:36;101583.59;;;25.32;100.00
15642;BME280;7920;42.524;27.448;2022-07-19T01:53:06;101585.59;;;25.14;100.00
15642;BME280;7920;42.524;27.448;2022-07-19T01:55:36;101582.59;;;25.33;100.00
15642;BME280;7920;42.524;27.448;2022-07-19T01:58:07;101581.97;;;25.31;100.00
15642;BME280;7920;42.524;27.448;2022-07-19T02:00:40;101580.81;;;23.92;92.81
15642;BME280;7920;42.524;27.448;2022-07-19T02:03:10;101584.75;;;24.39;100.00
15642;BME280;7920;42.524;27.448;2022-07-19T02:05:40;101580.94;;;25.08;100.00
15642;BME280;7920;42.524;27.448;2022-07-19T02:08:12;101575.44;;;24.85;95.37
15642;BME280;7920;42.524;27.448;2022-07-19T02:10:42;101581.00;;;24.66;100.00
15642;BME280;7920;42.524;27.448;2022-07-19T02:13:12;101583.75;;;24.90;100.00
15642;BME280;7920;42.524;27.448;2022-07-19T02:15:45;101586.25;;;25.08;100.00
15642;BME280;7920;42.524;27.448;2022-07-19T02:18:16;101581.59;;;24.86;100.00
15642;BME280;7920;42.524;27.448;2022-07-19T02:20:46;101590.19;;;24.88;100.00
15642;BME280;7920;42.524;27.448;2022-07-19T02:23:16;101579.84;;;24.18;94.77
15642;BME280;7920;42.524;27.448;2022-07-19T02:25:46;101588.13;;;23.28;100.00
15642;BME280;7920;42.524;27.448;2022-07-19T02:28:17;101583.69;;;23.98;100.00
15642;BME280;7920;42.524;27.448;2022-07-19T02:30:49;101593.75;;;23.08;100.00
15642;BME280;7920;42.524;27.448;2022-07-19T02:33:20;101596.78;;;24.00;100.00
15642;BME280;7920;42.524;27.448;2022-07-19T02:35:50;101594.19;;;23.39;100.00
15642;BME280;7920;42.524;27.448;2022-07-19T02:38:20;101595.34;;;23.79;100.00
15642;BME280;7920;42.524;27.448;2022-07-19T02:40:50;101590.69;;;24.07;100.00
15642;BME280;7920;42.524;27.448;2022-07-19T02:43:21;101591.59;;;23.90;100.00
15642;BME280;7920;42.524;27.448;2022-07-19T02:45:53;101594.09;;;23.92;100.00
15642;BME280;7920;42.524;27.448;2022-07-19T02:48:24;101595.78;;;23.49;100.00
15642;BME280;7920;42.524;27.448;2022-07-19T02:50:54;101603.50;;;23.07;100.00
15642;BME280;7920;42.524;27.448;2022-07-19T02:53:24;101591.66;;;23.72;100.00
15642;BME280;7920;42.524;27.448;2022-07-19T02:55:55;101594.59;;;24.21;100.00
15642;BME280;7920;42.524;27.448;2022-07-19T02:58:25;101589.84;;;23.99;100.00
15642;BME280;7920;42.524;27.448;2022-07-19T03:00:58;101592.78;;;24.55;100.00
15642;BME280;7920;42.524;27.448;2022-07-19T03:03:28;101599.00;;;23.78;100.00
15642;BME280;7920;42.524;27.448;2022-07-19T03:06:16;101592.16;;;23.50;100.00
15642;BME280;7920;42.524;27.448;2022-07-19T03:08:46;101604.25;;;22.82;100.00
15642;BME280;7920;42.524;27.448;2022-07-19T03:11:17;101602.75;;;22.97;100.00
15642;BME280;7920;42.524;27.448;2022-07-19T03:13:47;101598.25;;;23.43;100.00
15642;BME280;7920;42.524;27.448;2022-07-19T03:16:20;101595.47;;;23.52;100.00
15642;BME280;7920;42.524;27.448;2022-07-19T03:18:50;101597.25;;;23.95;100.00
15642;BME280;7920;42.524;27.448;2022-07-19T03:21:21;101604.91;;;23.72;100.00
15642;BME280;7920;42.524;27.448;2022-07-19T03:23:51;101607.59;;;23.37;100.00
15642;BME280;7920;42.524;27.448;2022-07-19T03:26:21;101607.59;;;23.55;100.00
15642;BME280;7920;42.524;27.448;2022-07-19T03:28:51;101601.22;;;24.17;100.00
15642;BME280;7920;42.524;27.448;2022-07-19T03:31:25;101606.63;;;23.82;100.00
15642;BME280;7920;42.524;27.448;2022-07-19T03:33:55;101607.91;;;22.99;100.00
15642;BME280;7920;42.524;27.448;2022-07-19T03:36:26;101602.91;;;21.29;100.00
15642;BME280;7920;42.524;27.448;2022-07-19T03:38:56;101610.03;;;20.08;100.00
15642;BME280;7920;42.524;27.448;2022-07-19T03:41:26;101605.50;;;19.69;100.00
15642;BME280;7920;42.524;27.448;2022-07-19T03:43:56;101605.50;;;19.16;100.00
15642;BME280;7920;42.524;27.448;2022-07-19T03:46:29;101610.59;;;19.29;100.00
15642;BME280;7920;42.524;27.448;2022-07-19T03:48:59;101612.84;;;19.34;100.00
15642;BME280;7920;42.524;27.448;2022-07-19T03:51:30;101612.19;;;19.21;100.00
15642;BME280;7920;42.524;27.448;2022-07-19T03:54:00;101614.97;;;19.40;100.00
15642;BME280;7920;42.524;27.448;2022-07-19T03:56:30;101610.50;;;19.51;100.00
15642;BME280;7920;42.524;27.448;2022-07-19T03:59:01;101610.63;;;19.71;100.00
15642;BME280;7920;42.524;27.448;2022-07-19T04:01:34;101605.28;;;20.02;100.00
15642;BME280;7920;42.524;27.448;2022-07-19T04:04:05;101611.56;;;20.81;100.00
15642;BME280;7920;42.524;27.448;2022-07-19T04:06:35;101608.53;;;21.63;100.00
15642;BME280;7920;42.524;27.448;2022-07-19T04:09:06;101611.81;;;22.03;100.00
15642;BME280;7920;42.524;27.448;2022-07-19T04:11:36;101605.16;;;22.63;100.00
15642;BME280;7920;42.524;27.448;2022-07-19T04:14:06;101614.41;;;23.22;100.00
15642;BME280;7920;42.524;27.448;2022-07-19T04:16:39;101614.38;;;23.40;100.00
15642;BME280;7920;42.524;27.448;2022-07-19T04:19:09;101606.69;;;23.28;100.00
15642;BME280;7920;42.524;27.448;2022-07-19T04:21:40;101597.16;;;23.53;100.00
15642;BME280;7920;42.524;27.448;2022-07-19T04:24:10;101603.09;;;23.55;100.00
15642;BME280;7920;42.524;27.448;2022-07-19T04:26:41;101604.72;;;24.00;100.00
15642;BME280;7920;42.524;27.448;2022-07-19T04:29:11;101603.13;;;24.33;100.00
15642;BME280;7920;42.524;27.448;2022-07-19T04:31:44;101613.28;;;24.45;100.00
15642;BME280;7920;42.524;27.448;2022-07-19T04:34:14;101612.78;;;25.00;100.00
15642;BME280;7920;42.524;27.448;2022-07-19T04:36:45;101621.84;;;24.81;90.40
15642;BME280;7920;42.524;27.448;2022-07-19T04:39:15;101628.13;;;25.38;100.00
15642;BME280;7920;42.524;27.448;2022-07-19T04:41:45;101627.63;;;25.91;100.00
15642;BME280;7920;42.524;27.448;2022-07-19T04:44:15;101630.75;;;25.95;100.00
15642;BME280;7920;42.524;27.448;2022-07-19T04:46:48;101622.78;;;25.95;100.00
15642;BME280;7920;42.524;27.448;2022-07-19T04:49:18;101627.03;;;26.12;100.00
15642;BME280;7920;42.524;27.448;2022-07-19T04:51:49;101630.09;;;25.93;84.75
15642;BME280;7920;42.524;27.448;2022-07-19T04:54:19;101634.13;;;25.56;93.18
15642;BME280;7920;42.524;27.448;2022-07-19T04:56:49;101627.13;;;25.39;100.00
15642;BME280;7920;42.524;27.448;2022-07-19T04:59:19;101635.78;;;25.66;96.43
15642;BME280;7920;42.524;27.448;2022-07-19T05:01:52;101632.78;;;25.52;97.94
15642;BME280;7920;42.524;27.448;2022-07-19T05:04:22;101633.25;;;25.80;100.00
15642;BME280;7920;42.524;27.448;2022-07-19T05:06:53;101631.06;;;26.00;94.82
15642;BME280;7920;42.524;27.448;2022-07-19T05:09:24;101631.06;;;26.00;96.09
15642;BME280;7920;42.524;27.448;2022-07-19T05:11:55;101632.78;;;26.48;97.90
15642;BME280;7920;42.524;27.448;2022-07-19T05:14:25;101633.03;;;26.22;95.17
15642;BME280;7920;42.524;27.448;2022-07-19T05:16:58;101633.97;;;26.37;95.26
15642;BME280;7920;42.524;27.448;2022-07-19T05:19:28;101639.34;;;26.21;83.99
15642;BME280;7920;42.524;27.448;2022-07-19T05:21:59;101633.84;;;26.31;79.95
15642;BME280;7920;42.524;27.448;2022-07-19T05:24:29;101642.34;;;26.10;96.80
15642;BME280;7920;42.524;27.448;2022-07-19T05:26:59;101629.22;;;26.08;85.54
15642;BME280;7920;42.524;27.448;2022-07-19T05:29:29;101637.09;;;25.78;92.28
15642;BME280;7920;42.524;27.448;2022-07-19T05:32:03;101637.81;;;26.43;97.35
15642;BME280;7920;42.524;27.448;2022-07-19T05:34:33;101634.97;;;27.06;93.42
15642;BME280;7920;42.524;27.448;2022-07-19T05:37:03;101634.19;;;26.67;76.42
15642;BME280;7920;42.524;27.448;2022-07-19T05:39:33;101629.53;;;26.99;89.39
15642;BME280;7920;42.524;27.448;2022-07-19T05:42:04;101635.66;;;26.38;72.75
15642;BME280;7920;42.524;27.448;2022-07-19T05:44:34;101637.88;;;26.96;88.76
15642;BME280;7920;42.524;27.448;2022-07-19T05:47:07;101634.09;;;26.91;75.79
15642;BME280;7920;42.524;27.448;2022-07-19T05:49:37;101651.50;;;27.24;86.66
15642;BME280;7920;42.524;27.448;2022-07-19T05:52:08;101645.44;;;26.85;69.62
15642;BME280;7920;42.524;27.448;2022-07-19T05:54:38;101654.31;;;27.08;77.13
15642;BME280;7920;42.524;27.448;2022-07-19T05:57:08;101622.75;;;27.20;83.43
15642;BME280;7920;42.524;27.448;2022-07-19T05:59:38;101641.88;;;27.23;67.20
15642;BME280;7920;42.524;27.448;2022-07-19T06:02:11;101644.31;;;26.32;68.20
15642;BME280;7920;42.524;27.448;2022-07-19T06:04:42;101643.19;;;26.27;67.98
15642;BME280;7920;42.524;27.448;2022-07-19T06:07:12;101642.78;;;26.46;65.61
15642;BME280;7920;42.524;27.448;2022-07-19T06:09:42;101644.09;;;25.63;64.55
15642;BME280;7920;42.524;27.448;2022-07-19T06:12:12;101640.25;;;25.81;65.54
15642;BME280;7920;42.524;27.448;2022-07-19T06:14:43;101633.78;;;25.84;63.94
15642;BME280;7920;42.524;27.448;2022-07-19T06:17:16;101645.91;;;25.70;64.57
15642;BME280;7920;42.524;27.448;2022-07-19T06:19:46;101642.09;;;25.56;67.97
15642;BME280;7920;42.524;27.448;2022-07-19T06:22:17;101642.91;;;25.81;67.04
15642;BME280;7920;42.524;27.448;2022-07-19T06:24:47;101630.91;;;26.01;65.18
15642;BME280;7920;42.524;27.448;2022-07-19T06:27:17;101644.09;;;25.71;67.20
15642;BME280;7920;42.524;27.448;2022-07-19T06:29:48;101637.38;;;26.07;68.62
15642;BME280;7920;42.524;27.448;2022-07-19T06:32:20;101639.38;;;26.05;65.20
15642;BME280;7920;42.524;27.448;2022-07-19T06:34:51;101638.34;;;26.30;67.26
15642;BME280;7920;42.524;27.448;2022-07-19T06:37:21;101644.03;;;26.19;64.32
15642;BME280;7920;42.524;27.448;2022-07-19T06:39:51;101648.09;;;26.77;64.86
15642;BME280;7920;42.524;27.448;2022-07-19T06:42:21;101642.72;;;26.93;70.14
15642;BME280;7920;42.524;27.448;2022-07-19T06:44:52;101635.09;;;26.82;61.62
15642;BME280;7920;42.524;27.448;2022-07-19T06:47:25;101641.59;;;26.87;64.18
15642;BME280;7920;42.524;27.448;2022-07-19T06:49:56;101642.38;;;26.96;66.60
15642;BME280;7920;42.524;27.448;2022-07-19T06:52:47;101640.97;;;26.38;64.78
15642;BME280;7920;42.524;27.448;2022-07-19T06:55:17;101632.41;;;26.59;64.50
15642;BME280;7920;42.524;27.448;2022-07-19T06:57:47;101635.66;;;26.38;63.46
15642;BME280;7920;42.524;27.448;2022-07-19T07:00:18;101641.78;;;26.47;68.96
15642;BME280;7920;42.524;27.448;2022-07-19T07:02:51;101638.44;;;26.45;62.63
15642;BME280;7920;42.524;27.448;2022-07-19T07:05:21;101633.22;;;26.60;62.53
15642;BME280;7920;42.524;27.448;2022-07-19T07:07:51;101640.34;;;26.67;66.12
15642;BME280;7920;42.524;27.448;2022-07-19T07:10:22;101646.91;;;26.48;61.69
15642;BME280;7920;42.524;27.448;2022-07-19T07:12:52;101650.66;;;26.31;59.14
15642;BME280;7920;42.524;27.448;2022-07-19T07:15:22;101647.28;;;26.37;62.31
15642;BME280;7920;42.524;27.448;2022-07-19T07:17:55;101644.00;;;26.27;61.42
15642;BME280;7920;42.524;27.448;2022-07-19T07:20:25;101648.34;;;26.04;60.67
15642;BME280;7920;42.524;27.448;2022-07-19T07:22:56;101641.38;;;26.19;62.74
15642;BME280;7920;42.524;27.448;2022-07-19T07:25:26;101649.88;;;25.98;60.93
15642;BME280;7920;42.524;27.448;2022-07-19T07:27:56;101642.84;;;26.14;62.19
15642;BME280;7920;42.524;27.448;2022-07-19T07:30:26;101645.31;;;26.39;64.32
15642;BME280;7920;42.524;27.448;2022-07-19T07:32:59;101649.66;;;26.16;63.60
15642;BME280;7920;42.524;27.448;2022-07-19T07:35:29;101647.16;;;26.31;62.39
15642;BME280;7920;42.524;27.448;2022-07-19T07:38:00;101646.91;;;26.48;63.67
15642;BME280;7920;42.524;27.448;2022-07-19T07:40:30;101633.97;;;26.37;63.60
15642;BME280;7920;42.524;27.448;2022-07-19T07:43:00;101645.59;;;26.44;59.92
15642;BME280;7920;42.524;27.448;2022-07-19T07:45:31;101657.97;;;26.13;60.90
15642;BME280;7920;42.524;27.448;2022-07-19T07:48:05;101643.34;;;26.17;64.05
15642;BME280;7920;42.524;27.448;2022-07-19T07:50:35;101640.97;;;26.38;62.37
15642;BME280;7920;42.524;27.448;2022-07-19T07:53:05;101646.91;;;26.48;61.99
15642;BME280;7920;42.524;27.448;2022-07-19T07:55:36;101646.91;;;26.48;61.83
15642;BME280;7920;42.524;27.448;2022-07-19T07:58:07;101653.44;;;26.38;61.28
15642;BME280;7920;42.524;27.448;2022-07-19T08:00:39;101644.03;;;26.11;62.55
15642;BME280;7920;42.524;27.448;2022-07-19T08:03:12;101653.00;;;26.10;63.03
15642;BME280;7920;42.524;27.448;2022-07-19T08:05:43;101637.69;;;26.12;63.10
15642;BME280;7920;42.524;27.448;2022-07-19T08:08:14;101647.25;;;26.45;63.74
15642;BME280;7920;42.524;27.448;2022-07-19T08:10:45;101653.47;;;26.69;62.26
15642;BME280;7920;42.524;27.448;2022-07-19T08:13:16;101655.09;;;26.86;60.96
15642;BME280;7920;42.524;27.448;2022-07-19T08:15:46;101650.38;;;26.96;61.49
15642;BME280;7920;42.524;27.448;2022-07-19T08:18:19;101651.22;;;27.19;60.51
15642;BME280;7920;42.524;27.448;2022-07-19T08:20:49;101649.31;;;27.05;59.08
15642;BME280;7920;42.524;27.448;2022-07-19T08:23:19;101653.22;;;27.17;59.17
15642;BME280;7920;42.524;27.448;2022-07-19T08:25:49;101645.53;;;27.22;58.11
15642;BME280;7920;42.524;27.448;2022-07-19T08:28:20;101648.31;;;27.06;59.47
15642;BME280;7920;42.524;27.448;2022-07-19T08:30:50;101649.44;;;27.12;59.24
15642;BME280;7920;42.524;27.448;2022-07-19T08:33:41;101653.63;;;27.06;59.24
15642;BME280;7920;42.524;27.448;2022-07-19T08:36:11;101648.63;;;27.11;59.13
15642;BME280;7920;42.524;27.448;2022-07-19T08:38:42;101647.13;;;27.31;58.10
15642;BME280;7920;42.524;27.448;2022-07-19T08:41:14;101644.09;;;27.34;59.14
15642;BME280;7920;42.524;27.448;2022-07-19T08:43:44;101644.06;;;27.20;58.78
15642;BME280;7920;42.524;27.448;2022-07-19T08:46:14;101643.09;;;27.35;59.12
15642;BME280;7920;42.524;27.448;2022-07-19T08:48:48;101642.34;;;27.50;58.06
15642;BME280;7920;42.524;27.448;2022-07-19T08:51:20;101642.94;;;27.60;61.03
15642;BME280;7920;42.524;27.448;2022-07-19T08:53:50;101636.28;;;27.33;59.45
15642;BME280;7920;42.524;27.448;2022-07-19T08:56:20;101630.84;;;27.26;60.98
15642;BME280;7920;42.524;27.448;2022-07-19T08:59:03;101647.19;;;27.23;61.10
15642;BME280;7920;42.524;27.448;2022-07-19T09:01:33;101631.91;;;27.40;60.36
15642;BME280;7920;42.524;27.448;2022-07-19T09:04:16;101634.88;;;27.22;59.58
15642;BME280;7920;42.524;27.448;2022-07-19T09:06:49;101636.28;;;27.33;59.61
15642;BME280;7920;42.524;27.448;2022-07-19T09:09:21;101636.88;;;27.20;59.57
15642;BME280;7920;42.524;27.448;2022-07-19T09:11:52;101634.94;;;27.14;59.35
15642;BME280;7920;42.524;27.448;2022-07-19T09:14:24;101639.06;;;27.39;59.89
15642;BME280;7920;42.524;27.448;2022-07-19T09:16:57;101637.53;;;27.68;61.98
15642;BME280;7920;42.524;27.448;2022-07-19T09:19:36;101630.16;;;27.55;58.86
15642;BME280;7920;42.524;27.448;2022-07-19T09:22:08;101634.63;;;27.55;59.96
15642;BME280;7920;42.524;27.448;2022-07-19T09:24:41;101633.81;;;27.31;62.00
15642;BME280;7920;42.524;27.448;2022-07-19T09:27:13;101625.16;;;27.29;62.24
15642;BME280;7920;42.524;27.448;2022-07-19T09:29:46;101638.41;;;27.37;61.52
15642;BME280;7920;42.524;27.448;2022-07-19T09:32:18;101634.97;;;27.29;61.87
15642;BME280;7920;42.524;27.448;2022-07-19T09:34:54;101632.88;;;27.47;60.52
15642;BME280;7920;42.524;27.448;2022-07-19T09:37:25;101634.16;;;27.28;62.78
15642;BME280;7920;42.524;27.448;2022-07-19T09:39:58;101628.75;;;27.14;62.29
15642;BME280;7920;42.524;27.448;2022-07-19T09:42:35;101634.75;;;27.38;61.12
15642;BME280;7920;42.524;27.448;2022-07-19T09:45:07;101625.63;;;27.33;60.44
15642;BME280;7920;42.524;27.448;2022-07-19T09:47:39;101634.72;;;27.24;60.19
15642;BME280;7920;42.524;27.448;2022-07-19T09:50:14;101628.69;;;27.67;61.21
15642;BME280;7920;42.524;27.448;2022-07-19T09:52:45;101625.38;;;27.65;61.48
15642;BME280;7920;42.524;27.448;2022-07-19T09:55:16;101624.53;;;27.65;61.52
15642;BME280;7920;42.524;27.448;2022-07-19T09:57:49;101634.44;;;27.33;62.48
15642;BME280;7920;42.524;27.448;2022-07-19T10:00:21;101631.06;;;27.39;61.02
15642;BME280;7920;42.524;27.448;2022-07-19T10:02:54;101618.94;;;27.60;60.69
15642;BME280;7920;42.524;27.448;2022-07-19T10:05:28;101620.69;;;27.44;61.98
15642;BME280;7920;42.524;27.448;2022-07-19T10:08:00;101620.41;;;27.62;63.88
15642;BME280;7920;42.524;27.448;2022-07-19T10:10:31;101617.03;;;27.83;63.67
15642;BME280;7920;42.524;27.448;2022-07-19T10:13:02;101603.31;;;27.86;63.10
15642;BME280;7920;42.524;27.448;2022-07-19T10:15:38;101609.88;;;27.98;62.35
15642;BME280;7920;42.524;27.448;2022-07-19T10:18:13;101610.13;;;27.88;59.58
15642;BME280;7920;42.524;27.448;2022-07-19T10:20:50;101612.63;;;27.90;60.80
15642;BME280;7920;42.524;27.448;2022-07-19T10:23:26;101611.09;;;28.10;59.73
15642;BME280;7920;42.524;27.448;2022-07-19T10:25:58;101597.44;;;28.05;60.47
15642;BME280;7920;42.524;27.448;2022-07-19T10:28:31;101602.88;;;27.97;60.61
15642;BME280;7920;42.524;27.448;2022-07-19T10:31:26;101610.03;;;27.82;60.72
15642;BME280;7920;42.524;27.448;2022-07-19T10:34:01;101594.59;;;27.92;62.45
15642;BME280;7920;42.524;27.448;2022-07-19T10:36:36;101591.66;;;27.87;63.20
15642;BME280;7920;42.524;27.448;2022-07-19T10:39:22;101597.69;;;27.81;59.16
15642;BME280;7920;42.524;27.448;2022-07-19T10:42:13;101582.91;;;28.22;61.23
15642;BME280;7920;42.524;27.448;2022-07-19T10:45:12;101591.50;;;28.32;61.55
15642;BME280;7920;42.524;27.448;2022-07-19T10:48:05;101593.66;;;28.44;60.32
15642;BME280;7920;42.524;27.448;2022-07-19T10:53:58;101581.59;;;28.33;61.21
15642;BME280;7920;42.524;27.448;2022-07-19T10:56:35;101588.44;;;28.21;60.95
15642;BME280;7920;42.524;27.448;2022-07-19T10:59:33;101586.22;;;27.80;59.96
15642;BME280;7920;42.524;27.448;2022-07-19T11:02:05;101582.16;;;27.55;62.32
15642;BME280;7920;42.524;27.448;2022-07-19T11:04:56;101580.31;;;27.56;64.37
15642;BME280;7920;42.524;27.448;2022-07-19T11:07:26;101574.69;;;27.65;62.30
15642;BME280;7920;42.524;27.448;2022-07-19T11:09:59;101573.72;;;27.43;63.44
15642;BME280;7920;42.524;27.448;2022-07-19T11:12:33;101574.69;;;27.65;64.59
15642;BME280;7920;42.524;27.448;2022-07-19T11:15:07;101578.47;;;27.56;64.98
15642;BME280;7920;42.524;27.448;2022-07-19T11:17:57;101575.81;;;27.71;63.16
15642;BME280;7920;42.524;27.448;2022-07-19T11:20:29;101579.06;;;27.43;64.56
15642;BME280;7920;42.524;27.448;2022-07-19T11:23:00;101574.34;;;27.68;67.14
15642;BME280;7920;42.524;27.448;2022-07-19T11:25:36;101565.34;;;28.13;64.12
15642;BME280;7920;42.524;27.448;2022-07-19T11:28:06;101564.50;;;28.13;64.53
15642;BME280;7920;42.524;27.448;2022-07-19T11:30:49;101561.56;;;28.08;65.08
15642;BME280;7920;42.524;27.448;2022-07-19T11:33:20;101555.13;;;28.17;62.72
15642;BME280;7920;42.524;27.448;2022-07-19T11:35:55;101553.91;;;28.34;61.70
15642;BME280;7920;42.524;27.448;2022-07-19T11:38:34;101558.91;;;28.58;63.01
15642;BME280;7920;42.524;27.448;2022-07-19T11:41:12;101555.41;;;28.22;64.33
15642;BME280;7920;42.524;27.448;2022-07-19T11:43:43;101560.75;;;28.22;61.32
15642;BME280;7920;42.524;27.448;2022-07-19T11:46:15;101546.59;;;27.92;61.93
15642;BME280;7920;42.524;27.448;2022-07-19T11:48:48;101556.72;;;28.11;64.91
15642;BME280;7920;42.524;27.448;2022-07-19T11:51:18;101555.56;;;28.06;64.27
15642;BME280;7920;42.524;27.448;2022-07-19T11:53:50;101549.41;;;28.05;61.96
15642;BME280;7920;42.524;27.448;2022-07-19T11:56:25;101544.81;;;28.14;59.39
15642;BME280;7920;42.524;27.448;2022-07-19T11:58:58;101555.22;;;28.23;61.51
15642;BME280;7920;42.524;27.448;2022-07-19T12:01:30;101548.78;;;28.03;63.37
15642;BME280;7920;42.524;27.448;2022-07-19T12:04:02;101536.81;;;28.14;63.50
15642;BME280;7920;42.524;27.448;2022-07-19T12:06:37;101546.44;;;28.29;60.18
15642;BME280;7920;42.524;27.448;2022-07-19T12:09:09;101548.84;;;28.39;58.76
15642;BME280;7920;42.524;27.448;2022-07-19T12:11:44;101540.59;;;28.55;60.87
15642;BME280;7920;42.524;27.448;2022-07-19T12:14:20;101535.38;;;28.83;58.47
15642;BME280;7920;42.524;27.448;2022-07-19T12:17:08;101546.84;;;29.54;55.73
15642;BME280;7920;42.524;27.448;2022-07-19T12:19:40;101545.19;;;30.21;49.40
15642;BME280;7920;42.524;27.448;2022-07-19T12:22:29;101528.19;;;31.93;49.23
15642;BME280;7920;42.524;27.448;2022-07-19T12:24:59;101533.31;;;32.46;49.17
15642;BME280;7920;42.524;27.448;2022-07-19T12:27:32;101539.78;;;31.87;46.58
15642;BME280;7920;42.524;27.448;2022-07-19T12:30:04;101533.97;;;31.97;47.56
15642;BME280;7920;42.524;27.448;2022-07-19T12:32:37;101524.16;;;32.60;46.29
15642;BME280;7920;42.524;27.448;2022-07-19T12:35:11;101530.69;;;33.27;43.99
15642;BME280;7920;42.524;27.448;2022-07-19T12:37:43;101529.94;;;33.20;43.35
15642;BME280;7920;42.524;27.448;2022-07-19T12:40:19;101514.75;;;34.05;43.37
15642;BME280;7920;42.524;27.448;2022-07-19T12:42:53;101518.94;;;33.46;45.47
15642;BME280;7920;42.524;27.448;2022-07-19T12:45:28;101527.88;;;33.40;43.68
15642;BME280;7920;42.524;27.448;2022-07-19T12:47:59;101516.75;;;32.56;45.49
15642;BME280;7920;42.524;27.448;2022-07-19T12:50:32;101524.09;;;32.73;47.29
15642;BME280;7920;42.524;27.448;2022-07-19T12:53:06;101511.31;;;32.69;46.98
15642;BME280;7920;42.524;27.448;2022-07-19T12:55:38;101514.25;;;32.54;46.83
15642;BME280;7920;42.524;27.448;2022-07-19T12:58:15;101510.91;;;33.39;44.77
15642;BME280;7920;42.524;27.448;2022-07-19T13:01:06;101516.66;;;32.31;47.10
15642;BME280;7920;42.524;27.448;2022-07-19T13:03:40;101502.53;;;32.42;45.60
15642;BME280;7920;42.524;27.448;2022-07-19T13:06:10;101504.50;;;31.71;48.18
15642;BME280;7920;42.524;27.448;2022-07-19T13:08:40;101502.91;;;32.21;49.54
15642;BME280;7920;42.524;27.448;2022-07-19T13:11:11;101500.22;;;33.33;47.09
15642;BME280;7920;42.524;27.448;2022-07-19T13:13:44;101506.16;;;32.92;47.10
15642;BME280;7920;42.524;27.448;2022-07-19T13:16:14;101507.25;;;32.22;49.02
15642;BME280;7920;42.524;27.448;2022-07-19T13:18:44;101504.84;;;32.38;48.82
15642;BME280;7920;42.524;27.448;2022-07-19T13:21:17;101509.97;;;33.34;45.56
15642;BME280;7920;42.524;27.448;2022-07-19T13:23:48;101508.03;;;32.29;47.16
15642;BME280;7920;42.524;27.448;2022-07-19T13:26:25;101503.09;;;32.26;45.91
15642;BME280;7920;42.524;27.448;2022-07-19T13:28:58;101504.44;;;31.90;47.31
15642;BME280;7920;42.524;27.448;2022-07-19T13:31:28;101493.22;;;32.07;47.94
15642;BME280;7920;42.524;27.448;2022-07-19T13:33:59;101497.03;;;32.37;47.23
15642;BME280;7920;42.524;27.448;2022-07-19T13:36:29;101494.22;;;32.19;48.69
15642;BME280;7920;42.524;27.448;2022-07-19T13:38:59;101492.78;;;31.52;49.08
15642;BME280;7920;42.524;27.448;2022-07-19T13:41:30;101501.59;;;31.85;48.95
15642;BME280;7920;42.524;27.448;2022-07-19T13:44:03;101504.78;;;33.08;46.24
15642;BME280;7920;42.524;27.448;2022-07-19T13:46:33;101500.22;;;34.24;44.69
15642;BME280;7920;42.524;27.448;2022-07-19T13:49:04;101500.91;;;33.47;44.27
15642;BME280;7920;42.524;27.448;2022-07-19T13:51:34;101500.50;;;32.75;45.31
15642;BME280;7920;42.524;27.448;2022-07-19T13:54:05;101491.72;;;32.86;45.93
15642;BME280;7920;42.524;27.448;2022-07-19T13:56:35;101482.47;;;33.50;44.20
15642;BME280;7920;42.524;27.448;2022-07-19T13:59:08;101491.78;;;33.05;44.76
15642;BME280;7920;42.524;27.448;2022-07-19T14:01:38;101479.53;;;33.88;44.11
15642;BME280;7920;42.524;27.448;2022-07-19T14:04:12;101493.31;;;33.80;44.18
15642;BME280;7920;42.524;27.448;2022-07-19T14:06:49;101484.53;;;32.80;46.51
15642;BME280;7920;42.524;27.448;2022-07-19T14:09:19;101490.09;;;33.90;44.35
15642;BME280;7920;42.524;27.448;2022-07-19T14:11:50;101494.03;;;33.08;45.75
15642;BME280;7920;42.524;27.448;2022-07-19T14:14:23;101496.72;;;33.51;46.05
15642;BME280;7920;42.524;27.448;2022-07-19T14:16:53;101489.63;;;33.38;46.22
15642;BME280;7920;42.524;27.448;2022-07-19T14:19:24;101501.50;;;32.81;47.95
15642;BME280;7920;42.524;27.448;2022-07-19T14:21:54;101497.44;;;32.72;46.35
15642;BME280;7920;42.524;27.448;2022-07-19T14:24:26;101496.41;;;33.59;45.94
15642;BME280;7920;42.524;27.448;2022-07-19T14:26:56;101495.63;;;33.58;45.49
15642;BME280;7920;42.524;27.448;2022-07-19T14:29:29;101491.50;;;32.63;46.63
15642;BME280;7920;42.524;27.448;2022-07-19T14:32:00;101489.56;;;32.95;46.31
15642;BME280;7920;42.524;27.448;2022-07-19T14:34:30;101486.41;;;32.04;48.39
15642;BME280;7920;42.524;27.448;2022-07-19T14:37:03;101487.56;;;32.28;49.09
15642;BME280;7920;42.524;27.448;2022-07-19T14:39:33;101491.53;;;32.50;49.40
15642;BME280;7920;42.524;27.448;2022-07-19T14:42:04;101493.94;;;32.33;49.58
15642;BME280;7920;42.524;27.448;2022-07-19T14:44:37;101488.34;;;32.98;47.19
15642;BME280;7920;42.524;27.448;2022-07-19T14:47:07;101490.59;;;34.46;43.48
15642;BME280;7920;42.524;27.448;2022-07-19T14:49:38;101486.06;;;34.28;41.90
15642;BME280;7920;42.524;27.448;2022-07-19T14:52:08;101488.00;;;32.87;44.42
15642;BME280;7920;42.524;27.448;2022-07-19T14:54:38;101490.22;;;33.40;44.04
15642;BME280;7920;42.524;27.448;2022-07-19T14:57:09;101485.13;;;34.64;41.82
15642;BME280;7920;42.524;27.448;2022-07-19T14:59:42;101478.09;;;34.04;42.90
15642;BME280;7920;42.524;27.448;2022-07-19T15:02:16;101482.25;;;33.70;42.99